createdAt,value
2024-03-02T00:03:26.239Z,98158.34
2024-03-02T00:08:28.785Z,98156.41
2024-03-02T00:13:34.948Z,98152.77
2024-03-02T00:18:38.020Z,98155.17
2024-03-02T00:23:40.851Z,98143.80
2024-03-02T00:28:47.475Z,98137.95
2024-03-02T00:33:50.396Z,98145.85
2024-03-02T00:38:55.267Z,98146.17
2024-03-02T00:44:09.528Z,98145.42
2024-03-02T00:49:27.101Z,98143.64
2024-03-02T00:54:30.237Z,98137.41
2024-03-02T00:59:33.145Z,98139.19
2024-03-02T01:04:35.434Z,98137.66
2024-03-02T01:09:37.370Z,98135.25
2024-03-02T01:14:39.218Z,98130.75
2024-03-02T01:19:43.208Z,98129.92
2024-03-02T01:24:45.275Z,98124.16
2024-03-02T01:29:47.351Z,98121.10
2024-03-02T01:34:49.600Z,98111.59
2024-03-02T01:39:51.817Z,98108.29
2024-03-02T01:44:53.923Z,98102.59
2024-03-02T01:49:55.909Z,98105.40
2024-03-02T01:54:57.897Z,98105.71
2024-03-02T02:00:00.021Z,98104.02
2024-03-02T02:05:01.912Z,98104.21
2024-03-02T02:10:04.113Z,98100.38
2024-03-02T02:15:32.033Z,98105.55
2024-03-02T02:20:34.385Z,98097.70
2024-03-02T02:25:36.479Z,98100.98
2024-03-02T02:30:38.786Z,98100.52
2024-03-02T02:35:40.737Z,98100.65
2024-03-02T02:40:42.647Z,98098.90
2024-03-02T02:45:44.500Z,98095.25
2024-03-02T02:50:46.564Z,98096.03
2024-03-02T02:55:48.482Z,98095.51
2024-03-02T03:00:50.777Z,98086.73
2024-03-02T03:05:52.945Z,98089.76
2024-03-02T03:10:54.827Z,98089.23
2024-03-02T03:15:57.230Z,98089.52
2024-03-02T03:20:59.263Z,98090.86
2024-03-02T03:26:02.071Z,98098.98
2024-03-02T03:31:04.718Z,98093.36
2024-03-02T03:36:07.005Z,98095.45
2024-03-02T03:41:09.049Z,98101.62
2024-03-02T03:46:11.721Z,98101.17
2024-03-02T03:51:13.686Z,98099.06
2024-03-02T03:56:15.669Z,98098.52
2024-03-02T04:01:17.789Z,98098.95
2024-03-02T04:06:19.948Z,98098.63
2024-03-02T04:11:22.029Z,98098.53
2024-03-02T04:16:24.152Z,98101.21
2024-03-02T04:21:26.009Z,98096.28
2024-03-02T04:26:28.096Z,98098.70
2024-03-02T04:31:30.261Z,98095.90
2024-03-02T04:36:32.575Z,98096.70
2024-03-02T04:41:34.525Z,98098.48
2024-03-02T04:46:36.518Z,98096.94
2024-03-02T04:51:38.691Z,98107.23
2024-03-02T04:56:51.253Z,98103.89
2024-03-02T05:01:53.477Z,98104.43
2024-03-02T05:06:57.449Z,98106.02
2024-03-02T05:12:18.481Z,98109.92
2024-03-02T05:17:20.320Z,98118.93
2024-03-02T05:22:22.147Z,98115.17
2024-03-02T05:27:24.163Z,98114.25
2024-03-02T05:32:26.752Z,98119.02
2024-03-02T05:37:29.644Z,98126.55
2024-03-02T05:42:31.680Z,98131.54
2024-03-02T05:47:34.310Z,98131.98
2024-03-02T05:52:36.344Z,98135.00
2024-03-02T05:57:57.042Z,98142.27
2024-03-02T06:02:59.294Z,98144.96
2024-03-02T06:08:01.256Z,98151.27
2024-03-02T06:13:03.251Z,98153.88
2024-03-02T06:18:07.863Z,98154.02
2024-03-02T06:23:10.544Z,98157.25
2024-03-02T06:28:12.464Z,98155.45
2024-03-02T06:33:14.489Z,98164.15
2024-03-02T06:38:16.448Z,98161.52
2024-03-02T06:43:18.429Z,98167.52
2024-03-02T06:48:24.349Z,98164.81
2024-03-02T06:53:26.807Z,98174.42
2024-03-02T06:58:28.804Z,98182.70
2024-03-02T07:03:30.965Z,98185.02
2024-03-02T07:08:33.048Z,98185.92
2024-03-02T07:13:35.974Z,98193.66
2024-03-02T07:18:46.607Z,98183.80
2024-03-02T07:23:48.583Z,98191.95
2024-03-02T07:28:50.591Z,98189.02
2024-03-02T07:33:52.820Z,98189.19
2024-03-02T07:38:55.820Z,98185.73
2024-03-02T07:43:58.092Z,98186.89
2024-03-02T07:49:00.192Z,98183.16
2024-03-02T07:54:02.196Z,98189.42
2024-03-02T07:59:05.239Z,98192.39
2024-03-02T08:04:07.921Z,98200.19
2024-03-02T08:09:13.776Z,98196.13
2024-03-02T08:14:15.757Z,98198.38
2024-03-02T08:19:17.923Z,98203.86
2024-03-02T08:24:20.306Z,98199.35
2024-03-02T08:29:22.393Z,98204.19
2024-03-02T08:34:27.921Z,98208.29
2024-03-02T08:39:29.942Z,98211.39
2024-03-02T08:44:32.444Z,98207.14
2024-03-02T08:49:35.538Z,98200.66
2024-03-02T08:54:37.603Z,98202.74
2024-03-02T08:59:40.314Z,98199.27
2024-03-02T09:04:42.380Z,98202.21
2024-03-02T09:09:44.358Z,98206.77
2024-03-02T09:14:48.592Z,98212.33
2024-03-02T09:19:54.014Z,98209.05
2024-03-02T09:24:56.036Z,98215.40
2024-03-02T09:29:57.918Z,98215.55
2024-03-02T09:35:00.139Z,98222.54
2024-03-02T09:40:02.268Z,98221.27
2024-03-02T09:45:04.786Z,98222.38
2024-03-02T09:50:08.539Z,98221.12
2024-03-02T09:55:10.978Z,98222.13
2024-03-02T10:00:16.283Z,98224.85
2024-03-02T10:05:27.063Z,98223.34
2024-03-02T10:10:40.999Z,98225.97
2024-03-02T10:15:43.681Z,98226.94
2024-03-02T10:20:45.883Z,98221.80
2024-03-02T10:25:54.934Z,98219.52
2024-03-02T10:31:00.408Z,98218.77
2024-03-02T10:36:03.513Z,98219.35
2024-03-02T10:41:06.019Z,98221.79
2024-03-02T10:46:07.926Z,98220.38
2024-03-02T10:51:09.868Z,98216.23
2024-03-02T10:56:17.538Z,98216.41
2024-03-02T11:01:21.291Z,98215.68
2024-03-02T11:06:24.877Z,98218.69
2024-03-02T11:11:36.112Z,98221.65
2024-03-02T11:16:40.936Z,98229.03
2024-03-02T11:21:44.650Z,98224.55
2024-03-02T11:26:46.896Z,98220.34
2024-03-02T11:32:19.417Z,98218.14
2024-03-02T11:37:22.016Z,98212.68
2024-03-02T11:42:24.094Z,98214.52
2024-03-02T11:47:34.683Z,98213.31
2024-03-02T11:52:37.985Z,98213.89
2024-03-02T11:57:39.966Z,98210.56
2024-03-02T12:02:46.244Z,98206.94
2024-03-02T12:07:48.779Z,98203.69
2024-03-02T12:13:00.106Z,98200.96
2024-03-02T12:18:03.729Z,98201.02
2024-03-02T12:23:06.891Z,98203.13
2024-03-02T12:28:09.949Z,98199.69
2024-03-02T12:33:12.930Z,98195.81
2024-03-02T12:38:16.163Z,98197.44
2024-03-02T12:43:18.128Z,98200.49
2024-03-02T12:48:20.329Z,98204.27
2024-03-02T12:53:23.041Z,98200.95
2024-03-02T12:58:25.210Z,98198.41
2024-03-02T13:03:27.368Z,98197.52
2024-03-02T13:08:29.380Z,98193.33
2024-03-02T13:13:35.653Z,98196.55
2024-03-02T13:18:39.601Z,98197.15
2024-03-02T13:23:41.528Z,98199.17
2024-03-02T13:28:43.461Z,98199.41
2024-03-02T13:33:45.632Z,98202.90
2024-03-02T13:38:47.504Z,98203.23
2024-03-02T13:43:51.211Z,98206.29
2024-03-02T13:48:55.429Z,98205.36
2024-03-02T13:54:00.361Z,98207.65
2024-03-02T13:59:02.388Z,98213.26
2024-03-02T14:04:04.594Z,98208.16
2024-03-02T14:09:06.500Z,98211.73
2024-03-02T14:14:08.506Z,98209.86
2024-03-02T14:19:10.948Z,98206.78
2024-03-02T14:24:13.112Z,98206.98
2024-03-02T14:29:15.381Z,98214.45
2024-03-02T14:34:17.502Z,98206.30
2024-03-02T14:39:20.961Z,98195.44
2024-03-02T14:44:23.326Z,98189.45
2024-03-02T14:49:26.325Z,98192.58
2024-03-02T14:54:28.324Z,98193.45
2024-03-02T14:59:31.043Z,98187.50
2024-03-02T15:04:33.022Z,98181.32
2024-03-02T15:09:36.860Z,98174.45
2024-03-02T15:14:39.843Z,98174.21
2024-03-02T15:19:42.362Z,98174.64
2024-03-02T15:24:45.142Z,98163.89
2024-03-02T15:29:49.411Z,98157.06
2024-03-02T15:34:51.452Z,98157.20
2024-03-02T15:39:53.594Z,98164.71
2024-03-02T15:44:56.232Z,98168.26
2024-03-02T15:49:58.112Z,98169.20
2024-03-02T15:55:00.244Z,98171.92
2024-03-02T16:00:02.208Z,98182.09
2024-03-02T16:05:14.427Z,98185.06
2024-03-02T16:10:17.527Z,98185.98
2024-03-02T16:15:19.765Z,98186.12
2024-03-02T16:20:21.672Z,98188.14
2024-03-02T16:25:26.294Z,98186.91
2024-03-02T16:30:28.413Z,98184.10
2024-03-02T16:35:30.431Z,98184.00
2024-03-02T16:40:33.061Z,98182.66
2024-03-02T16:45:35.564Z,98193.52
2024-03-02T16:50:37.590Z,98195.35
2024-03-02T16:55:39.526Z,98198.83
2024-03-02T17:00:42.297Z,98199.52
2024-03-02T17:05:44.332Z,98199.55
2024-03-02T17:10:47.448Z,98199.86
2024-03-02T17:15:49.411Z,98196.45
2024-03-02T17:20:51.777Z,98189.44
2024-03-02T17:25:53.800Z,98188.23
2024-03-02T17:30:56.723Z,98182.62
2024-03-02T17:35:59.145Z,98182.91
2024-03-02T17:41:02.044Z,98180.45
2024-03-02T17:46:04.321Z,98181.51
2024-03-02T17:51:09.413Z,98183.89
2024-03-02T17:56:12.497Z,98182.84
2024-03-02T18:01:16.594Z,98184.92
2024-03-02T18:06:18.864Z,98187.27
2024-03-02T18:11:24.855Z,98184.61
2024-03-02T18:16:27.463Z,98187.55
2024-03-02T18:21:30.212Z,98183.70
2024-03-02T18:26:34.460Z,98180.29
2024-03-02T18:31:36.553Z,98181.24
2024-03-02T18:36:38.432Z,98182.04
2024-03-02T18:41:40.344Z,98182.02
2024-03-02T18:46:42.574Z,98181.98
2024-03-02T18:51:44.488Z,98181.50
2024-03-02T18:56:46.618Z,98178.84
2024-03-02T19:01:50.580Z,98177.11
2024-03-02T19:06:52.904Z,98173.63
2024-03-02T19:11:56.504Z,98172.84
2024-03-02T19:16:58.525Z,98172.02
2024-03-02T19:22:05.451Z,98176.31
2024-03-02T19:27:12.528Z,98173.23
2024-03-02T19:32:18.412Z,98169.80
2024-03-02T19:37:22.904Z,98166.58
2024-03-02T19:42:24.770Z,98162.79
2024-03-02T19:47:27.681Z,98163.23
2024-03-02T19:52:29.873Z,98163.58
2024-03-02T19:57:32.075Z,98162.34
2024-03-02T20:02:34.130Z,98163.67
2024-03-02T20:07:37.162Z,98162.75
2024-03-02T20:12:39.583Z,98163.65
2024-03-02T20:17:41.624Z,98164.27
2024-03-02T20:22:44.292Z,98161.41
2024-03-02T20:27:46.562Z,98160.36
2024-03-02T20:32:48.550Z,98164.03
2024-03-02T20:37:51.388Z,98166.05
2024-03-02T20:42:53.257Z,98164.25
2024-03-02T20:47:55.245Z,98170.20
2024-03-02T20:53:01.705Z,98169.30
2024-03-02T20:58:03.726Z,98167.61
2024-03-02T21:03:06.154Z,98165.77
2024-03-02T21:08:10.095Z,98165.55
2024-03-02T21:13:12.154Z,98164.85
2024-03-02T21:18:14.169Z,98169.20
2024-03-02T21:23:17.484Z,98170.56
2024-03-02T21:28:19.602Z,98170.56
2024-03-02T21:33:21.497Z,98166.96
2024-03-02T21:38:25.015Z,98165.94
2024-03-02T21:43:32.386Z,98165.90
2024-03-02T21:48:35.650Z,98170.08
2024-03-02T21:53:37.553Z,98172.52
2024-03-02T21:58:40.477Z,98176.85
2024-03-02T22:03:46.882Z,98175.83
2024-03-02T22:08:53.005Z,98171.61
2024-03-02T22:13:55.010Z,98169.75
2024-03-02T22:18:56.981Z,98168.77
2024-03-02T22:23:58.944Z,98166.79
2024-03-02T22:29:00.855Z,98169.54
2024-03-02T22:34:02.743Z,98162.56
2024-03-02T22:39:05.073Z,98160.73
2024-03-02T22:44:07.181Z,98166.10
2024-03-02T22:49:09.255Z,98163.83
2024-03-02T22:54:12.796Z,98157.50
2024-03-02T22:59:15.526Z,98157.84
2024-03-02T23:04:17.406Z,98157.48
2024-03-02T23:09:19.362Z,98159.87
2024-03-02T23:14:21.549Z,98157.68
2024-03-02T23:19:24.283Z,98160.61
2024-03-02T23:24:26.353Z,98161.42
2024-03-02T23:29:28.250Z,98160.13
2024-03-02T23:34:30.287Z,98156.85
2024-03-02T23:39:51.386Z,98155.15
2024-03-02T23:44:53.261Z,98148.73
2024-03-02T23:49:55.324Z,98143.70
2024-03-02T23:54:57.366Z,98141.29
2024-03-02T23:59:59.604Z,98143.95
